LiveATC.Net - Listen to live air traffic control over the Internet!


ICAO: KJYO  IATA: JYO   Airport: Leesburg Executive Airport
City: Leesburg   State/Province: Virginia
Country: United States   Continent: North America
KJYO METAR Weather: KJYO 190915Z AUTO 09004KT 10SM OVC034 15/13 A3032 RMK AO2
KJYO Flight Activity (FlightAware)
KJYO Airport Info   (iFlightPlanner)
KJYO VFR Sectional Chart   (iFlightPlanner) 
KJYO IFR Low Chart   (iFlightPlanner) 

KJYO CTAF/Del/SFRA
Feed Status: UP   Listeners: 0
Listen in your browser - HTML5 player (in browser, HTML5)
Click here to listen with your own player (launches your MP3 player)
KJYO CTAF/Del/SFRA Audio Archives
FacilityFrequency
Emergency/Guard121.500
Leesburg Clearance118.550
Leesburg CTAF122.975

NOTICE

Unauthorized use prohibited. See LiveATC.net Terms of Service


Airport/ARTCC Code
Frequency Search
(e.g., 124.400, 128.75)
Site-wide search
 


Browse LiveATC Feeds
Top 50 LiveATC Feeds
LiveATC Feed Map
Bad Weather Areas

LiveATC FAQ
Offer LiveATC feed
Contact LiveATC.net
Press Inquiries

LiveATC on iPhone
LiveATC on Android

Windows Phone
Windows 8/10

LiveATC Mobile
(Mobile browser)

ATC Audio Archives
Interesting Recordings

LiveATC Forums


Home Page
About LiveATC.net
Make a Donation
Terms of Use
Privacy Policy

Canadian Air Freqs

AIRMETs/SIGMETs

FAA Airport Status
Nat'l Airspace Status
Arrival Demand Charts


Server Software By:
Icecast.org
Liquidsoap